createdAt,value
2022-08-23T00:00:54.322Z,36.08
2022-08-23T00:03:27.480Z,36.18
2022-08-23T00:06:00.399Z,36.17
2022-08-23T00:08:33.391Z,36.02
2022-08-23T00:11:06.418Z,35.99
2022-08-23T00:13:47.828Z,35.88
2022-08-23T00:16:12.431Z,35.82
2022-08-23T00:18:49.257Z,35.78
2022-08-23T00:21:18.384Z,35.69
2022-08-23T00:23:51.351Z,35.73
2022-08-23T00:26:24.347Z,35.69
2022-08-23T00:28:57.505Z,35.74
2022-08-23T00:31:30.417Z,35.77
2022-08-23T00:34:03.438Z,35.88
2022-08-23T00:36:36.357Z,35.72
2022-08-23T00:39:09.497Z,35.79
2022-08-23T00:41:42.446Z,35.64
2022-08-23T00:44:15.479Z,35.82
2022-08-23T00:46:48.522Z,35.73
2022-08-23T00:49:21.421Z,35.70
2022-08-23T00:51:54.456Z,35.65
2022-08-23T00:54:27.402Z,35.70
2022-08-23T00:57:00.511Z,35.77
2022-08-23T00:59:33.528Z,35.70
2022-08-23T01:02:06.638Z,35.69
2022-08-23T01:04:39.402Z,35.73
2022-08-23T01:07:12.504Z,35.75
2022-08-23T01:09:45.477Z,35.80
2022-08-23T01:12:19.186Z,35.71
2022-08-23T01:14:51.499Z,35.71
2022-08-23T01:17:24.437Z,35.65
2022-08-23T01:19:57.510Z,35.54
2022-08-23T01:22:30.541Z,35.47
2022-08-23T01:25:08.542Z,35.38
2022-08-23T01:27:36.474Z,35.50
2022-08-23T01:30:09.445Z,35.40
2022-08-23T01:32:42.545Z,35.47
2022-08-23T01:35:15.535Z,35.64
2022-08-23T01:37:48.536Z,35.59
2022-08-23T01:40:21.524Z,35.42
2022-08-23T01:42:54.504Z,35.46
2022-08-23T01:45:27.547Z,35.45
2022-08-23T01:48:00.603Z,35.57
2022-08-23T01:53:09.589Z,35.48
2022-08-23T01:55:42.537Z,35.61
2022-08-23T01:58:15.510Z,35.69
2022-08-23T02:00:48.533Z,35.63
2022-08-23T02:03:21.602Z,35.57
2022-08-23T02:05:54.634Z,35.60
2022-08-23T02:08:27.499Z,35.56
2022-08-23T02:11:00.584Z,35.70
2022-08-23T02:13:33.646Z,35.66
2022-08-23T02:16:06.601Z,35.70
2022-08-23T02:18:39.608Z,35.64
2022-08-23T02:21:12.565Z,35.68
2022-08-23T02:23:45.650Z,35.70
2022-08-23T02:26:18.557Z,35.74
2022-08-23T02:28:51.589Z,35.83
2022-08-23T02:31:25.488Z,35.79
2022-08-23T02:36:35.629Z,35.76
2022-08-23T02:39:08.601Z,35.78
2022-08-23T02:41:44.558Z,35.67
2022-08-23T02:44:17.543Z,35.77
2022-08-23T02:46:50.640Z,35.79
2022-08-23T02:49:23.587Z,35.76
2022-08-23T02:51:56.674Z,35.95
2022-08-23T02:54:29.635Z,36.07
2022-08-23T02:57:02.633Z,36.09
2022-08-23T02:59:35.637Z,36.10
2022-08-23T03:02:08.715Z,36.08
2022-08-23T03:04:41.705Z,36.08
2022-08-23T03:07:14.614Z,36.05
2022-08-23T03:09:47.610Z,36.15
2022-08-23T03:12:20.634Z,36.15
2022-08-23T03:14:53.716Z,36.16
2022-08-23T03:17:26.633Z,36.12
2022-08-23T03:19:59.675Z,36.04
2022-08-23T03:22:32.668Z,35.99
2022-08-23T03:25:05.687Z,35.96
2022-08-23T03:27:45.087Z,35.92
2022-08-23T03:30:15.518Z,36.07
2022-08-23T03:32:49.285Z,36.07
2022-08-23T03:35:17.626Z,36.13
2022-08-23T03:37:55.056Z,36.06
2022-08-23T03:40:23.777Z,36.02
2022-08-23T03:42:56.702Z,36.23
2022-08-23T03:45:29.707Z,36.17
2022-08-23T03:48:02.695Z,36.29
2022-08-23T03:50:35.686Z,36.35
2022-08-23T03:53:09.016Z,36.26
2022-08-23T03:55:42.686Z,36.36
2022-08-23T03:58:14.555Z,36.22
2022-08-23T04:00:47.655Z,36.39
2022-08-23T04:03:20.660Z,36.28
2022-08-23T04:05:53.753Z,36.45
2022-08-23T04:08:33.610Z,36.38
2022-08-23T04:10:59.517Z,36.44
2022-08-23T04:13:32.757Z,37.47
2022-08-23T04:16:05.760Z,38.65
2022-08-23T04:18:38.495Z,39.50
2022-08-23T04:21:11.555Z,40.01
2022-08-23T04:23:44.522Z,40.52
2022-08-23T04:26:17.472Z,40.31
2022-08-23T04:28:50.521Z,40.47
2022-08-23T04:31:23.743Z,40.23
2022-08-23T04:33:56.434Z,39.72
2022-08-23T04:36:29.591Z,38.67
2022-08-23T04:39:02.758Z,38.74
2022-08-23T04:41:35.817Z,37.27
2022-08-23T04:44:08.803Z,38.80
2022-08-23T04:46:41.778Z,38.67
2022-08-23T04:51:52.943Z,38.99
2022-08-23T04:54:22.544Z,39.40
2022-08-23T04:56:54.823Z,39.35
2022-08-23T04:59:27.870Z,39.70
2022-08-23T05:02:00.841Z,39.55
2022-08-23T05:04:33.824Z,39.30
2022-08-23T05:07:06.815Z,39.61
2022-08-23T05:09:39.895Z,39.63
2022-08-23T05:12:12.961Z,39.80
2022-08-23T05:14:47.946Z,39.86
2022-08-23T05:17:19.778Z,40.00
2022-08-23T05:19:52.650Z,40.05
2022-08-23T05:22:25.781Z,40.14
2022-08-23T05:24:58.873Z,40.07
2022-08-23T05:27:31.771Z,39.97
2022-08-23T05:30:04.911Z,40.15
2022-08-23T05:32:37.873Z,40.31
2022-08-23T05:35:10.905Z,40.32
2022-08-23T05:37:43.888Z,40.33
2022-08-23T05:40:16.756Z,40.38
2022-08-23T05:42:49.905Z,40.42
2022-08-23T05:45:22.528Z,40.42
2022-08-23T05:47:55.934Z,40.44
2022-08-23T05:50:28.877Z,40.49
2022-08-23T05:53:01.827Z,40.54
2022-08-23T05:55:35.254Z,40.54
2022-08-23T05:58:07.920Z,40.59
2022-08-23T06:00:41.086Z,40.69
2022-08-23T06:03:13.915Z,40.17
2022-08-23T06:05:46.670Z,39.40
2022-08-23T06:08:19.550Z,38.96
2022-08-23T06:10:52.713Z,40.36
2022-08-23T06:13:25.643Z,40.05
2022-08-23T06:15:58.790Z,39.57
2022-08-23T06:18:31.596Z,39.48
2022-08-23T06:21:04.626Z,39.42
2022-08-23T06:23:38.091Z,39.36
2022-08-23T06:26:11.958Z,39.39
2022-08-23T06:28:50.229Z,39.36
2022-08-23T06:31:17.940Z,39.38
2022-08-23T06:33:51.012Z,39.39
2022-08-23T06:36:23.866Z,39.39
2022-08-23T06:38:56.804Z,39.40
2022-08-23T06:41:29.749Z,39.42
2022-08-23T06:44:02.635Z,39.38
2022-08-23T06:46:35.802Z,39.36
2022-08-23T06:49:08.616Z,39.40
2022-08-23T06:51:41.769Z,39.41
2022-08-23T06:54:14.809Z,39.41
2022-08-23T06:56:47.786Z,39.47
2022-08-23T06:59:20.653Z,39.46
2022-08-23T07:01:54.135Z,39.49
2022-08-23T07:04:26.770Z,39.50
2022-08-23T07:07:00.007Z,39.50
2022-08-23T07:09:32.802Z,39.53
2022-08-23T07:12:05.709Z,39.55
2022-08-23T07:14:38.780Z,39.58
2022-08-23T07:17:12.009Z,39.56
2022-08-23T07:19:46.014Z,39.56
2022-08-23T07:22:18.719Z,39.62
2022-08-23T07:24:51.745Z,39.58
2022-08-23T07:27:24.848Z,39.65
2022-08-23T07:29:58.055Z,39.64
2022-08-23T07:32:30.992Z,39.64
2022-08-23T07:35:04.034Z,39.66
2022-08-23T07:37:37.034Z,39.65
2022-08-23T07:40:09.886Z,39.62
2022-08-23T07:42:42.871Z,39.62
2022-08-23T07:45:15.965Z,39.64
2022-08-23T07:48:06.844Z,39.65
2022-08-23T07:50:22.009Z,39.73
2022-08-23T07:52:55.073Z,39.73
2022-08-23T07:55:27.915Z,39.71
2022-08-23T07:58:01.235Z,39.71
2022-08-23T08:00:33.714Z,39.76
2022-08-23T08:03:06.990Z,39.73
2022-08-23T08:05:39.803Z,39.77
2022-08-23T08:08:13.914Z,39.76
2022-08-23T08:10:47.029Z,39.78
2022-08-23T08:13:20.362Z,39.77
2022-08-23T08:15:53.138Z,39.80
2022-08-23T08:18:26.153Z,39.80
2022-08-23T08:20:59.038Z,39.78
2022-08-23T08:23:31.797Z,39.85
2022-08-23T08:26:05.497Z,39.86
2022-08-23T08:28:37.946Z,39.81
2022-08-23T08:31:11.131Z,39.85
2022-08-23T08:33:43.943Z,39.87
2022-08-23T08:36:16.768Z,39.87
2022-08-23T08:38:51.155Z,39.87
2022-08-23T08:41:22.805Z,39.83
2022-08-23T08:43:55.964Z,39.86
2022-08-23T08:46:29.096Z,39.87
2022-08-23T08:49:01.807Z,39.95
2022-08-23T08:51:35.228Z,39.90
2022-08-23T08:54:07.806Z,39.93
2022-08-23T08:56:43.689Z,39.90
2022-08-23T08:59:17.068Z,39.92
2022-08-23T09:01:49.836Z,39.99
2022-08-23T09:04:22.802Z,39.92
2022-08-23T09:06:55.835Z,39.96
2022-08-23T09:09:28.912Z,39.94
2022-08-23T09:12:01.838Z,39.95
2022-08-23T09:14:34.876Z,40.00
2022-08-23T09:17:08.203Z,40.08
2022-08-23T09:19:41.098Z,40.02
2022-08-23T09:22:13.955Z,39.92
2022-08-23T09:24:47.009Z,40.00
2022-08-23T09:27:20.137Z,39.92
2022-08-23T09:29:53.208Z,39.95
2022-08-23T09:32:25.906Z,39.92
2022-08-23T09:34:59.149Z,39.99
2022-08-23T09:37:31.916Z,40.00
2022-08-23T09:40:05.059Z,40.02
2022-08-23T09:42:37.887Z,40.00
2022-08-23T09:45:10.872Z,40.00
2022-08-23T09:47:44.788Z,39.99
2022-08-23T09:50:16.991Z,40.03
2022-08-23T09:52:53.143Z,40.05
2022-08-23T09:55:26.037Z,40.04
2022-08-23T09:57:59.268Z,40.09
2022-08-23T10:00:31.876Z,40.10
2022-08-23T10:03:05.059Z,40.05
2022-08-23T10:05:37.999Z,40.13
2022-08-23T10:08:11.127Z,40.16
2022-08-23T10:10:43.930Z,40.17
2022-08-23T10:13:17.002Z,40.21
2022-08-23T10:15:50.113Z,40.22
2022-08-23T10:18:23.035Z,40.22
2022-08-23T10:20:56.081Z,40.18
2022-08-23T10:23:29.015Z,40.22
2022-08-23T10:26:02.092Z,40.23
2022-08-23T10:28:35.737Z,40.23
2022-08-23T10:31:08.072Z,40.22
2022-08-23T10:33:41.096Z,40.24
2022-08-23T10:36:14.124Z,40.23
2022-08-23T10:38:47.133Z,40.24
2022-08-23T10:41:19.971Z,40.24
2022-08-23T10:43:52.963Z,40.26
2022-08-23T10:46:25.995Z,40.25
2022-08-23T10:48:59.097Z,40.24
2022-08-23T10:51:32.370Z,40.28
2022-08-23T10:54:04.962Z,40.26
2022-08-23T10:56:40.480Z,40.27
2022-08-23T10:59:11.098Z,40.28
2022-08-23T11:01:44.185Z,40.26
2022-08-23T11:04:17.009Z,40.28
2022-08-23T11:06:50.115Z,40.28
2022-08-23T11:09:25.830Z,40.28
2022-08-23T11:11:56.060Z,40.29
2022-08-23T11:14:29.335Z,40.28
2022-08-23T11:17:02.173Z,40.27
2022-08-23T11:19:35.336Z,40.28
2022-08-23T11:22:08.010Z,40.28
2022-08-23T11:24:41.179Z,40.29
2022-08-23T11:27:14.383Z,40.29
2022-08-23T11:29:47.358Z,40.27
2022-08-23T11:32:20.348Z,40.27
2022-08-23T11:34:53.132Z,40.27
2022-08-23T11:37:26.223Z,40.30
2022-08-23T11:39:59.218Z,40.30
2022-08-23T11:42:32.266Z,40.30
2022-08-23T11:45:05.345Z,40.31
2022-08-23T11:47:40.956Z,40.29
2022-08-23T11:50:14.163Z,40.27
2022-08-23T11:52:47.148Z,40.30
2022-08-23T11:55:20.060Z,40.31
2022-08-23T11:57:53.181Z,40.31
2022-08-23T12:00:29.348Z,40.30
2022-08-23T12:02:59.401Z,40.32
2022-08-23T12:05:32.206Z,40.30
2022-08-23T12:08:05.498Z,40.31
2022-08-23T12:10:38.237Z,40.32
2022-08-23T12:13:11.176Z,40.31
2022-08-23T12:15:44.201Z,40.31
2022-08-23T12:18:22.004Z,40.31
2022-08-23T12:20:50.156Z,40.31
2022-08-23T12:23:23.150Z,40.32
2022-08-23T12:25:56.098Z,40.33
2022-08-23T12:28:29.103Z,40.31
2022-08-23T12:31:07.912Z,40.33
2022-08-23T12:33:35.104Z,40.32
2022-08-23T12:36:12.442Z,40.33
2022-08-23T12:38:41.315Z,40.32
2022-08-23T12:41:14.131Z,40.34
2022-08-23T12:43:47.299Z,40.32
2022-08-23T12:46:20.217Z,40.33
2022-08-23T12:48:53.441Z,40.34
2022-08-23T12:51:26.154Z,40.35
2022-08-23T12:53:59.160Z,40.34
2022-08-23T12:56:32.604Z,40.35
2022-08-23T12:59:05.468Z,40.36
2022-08-23T13:01:38.702Z,40.35
2022-08-23T13:04:11.296Z,40.37
2022-08-23T13:06:44.414Z,40.35
2022-08-23T13:09:17.185Z,40.38
2022-08-23T13:11:50.514Z,40.36
2022-08-23T13:14:23.200Z,40.36
2022-08-23T13:16:56.291Z,40.35
2022-08-23T13:19:29.308Z,40.35
2022-08-23T13:22:02.264Z,40.35
2022-08-23T13:24:38.585Z,40.33
2022-08-23T13:27:22.259Z,40.39
2022-08-23T13:30:09.075Z,40.36
2022-08-23T13:32:42.194Z,40.37
2022-08-23T13:35:15.186Z,40.35
2022-08-23T13:37:48.330Z,40.33
2022-08-23T13:40:21.257Z,40.34
2022-08-23T13:42:54.369Z,40.36
2022-08-23T13:45:27.534Z,40.34
2022-08-23T13:48:00.291Z,40.31
2022-08-23T13:50:34.535Z,40.33
2022-08-23T13:53:15.221Z,40.34
2022-08-23T13:55:39.401Z,40.30
2022-08-23T13:58:12.541Z,40.31
2022-08-23T14:00:46.958Z,40.31
2022-08-23T14:03:18.222Z,40.34
2022-08-23T14:05:51.287Z,40.31
2022-08-23T14:08:24.238Z,40.29
2022-08-23T14:10:57.270Z,40.29
2022-08-23T14:13:30.585Z,40.28
2022-08-23T14:18:36.595Z,40.30
2022-08-23T14:21:09.725Z,40.27
2022-08-23T14:23:43.588Z,40.28
2022-08-23T14:26:16.278Z,40.28
2022-08-23T14:28:49.416Z,40.30
2022-08-23T14:31:22.294Z,40.29
2022-08-23T14:34:00.017Z,40.27
2022-08-23T14:36:29.914Z,40.29
2022-08-23T14:39:01.375Z,40.28
2022-08-23T14:41:34.442Z,40.31
2022-08-23T14:44:07.428Z,40.30
2022-08-23T14:46:40.305Z,40.29
2022-08-23T14:49:13.451Z,40.29
2022-08-23T14:51:46.364Z,40.27
2022-08-23T14:54:19.581Z,40.29
2022-08-23T14:56:53.348Z,40.30
2022-08-23T14:59:25.393Z,40.32
2022-08-23T15:01:58.682Z,40.33
2022-08-23T15:04:34.374Z,40.32
2022-08-23T15:07:17.654Z,40.32
2022-08-23T15:09:38.329Z,40.32
2022-08-23T15:12:57.324Z,40.34
2022-08-23T15:14:43.615Z,41.02
2022-08-23T15:17:16.346Z,41.14
2022-08-23T15:19:49.352Z,40.99
2022-08-23T15:22:22.347Z,41.32
2022-08-23T15:24:55.708Z,41.14
2022-08-23T15:27:42.262Z,41.24
2022-08-23T15:30:15.348Z,41.19
2022-08-23T15:32:52.502Z,41.32
2022-08-23T15:35:21.356Z,41.36
2022-08-23T15:37:54.351Z,41.48
2022-08-23T15:40:27.721Z,41.91
2022-08-23T15:43:01.007Z,42.19
2022-08-23T15:45:33.755Z,42.36
2022-08-23T15:48:06.775Z,42.38
2022-08-23T15:50:39.542Z,42.38
2022-08-23T15:53:12.502Z,42.33
2022-08-23T15:55:45.745Z,42.32
2022-08-23T15:58:18.425Z,42.11
2022-08-23T16:00:51.441Z,42.24
2022-08-23T16:03:24.854Z,42.25
2022-08-23T16:05:57.559Z,42.20
2022-08-23T16:08:30.700Z,42.19
2022-08-23T16:11:03.773Z,42.17
2022-08-23T16:13:36.603Z,42.18
2022-08-23T16:16:09.536Z,42.10
2022-08-23T16:18:42.574Z,42.13
2022-08-23T16:21:15.445Z,42.09
2022-08-23T16:23:48.461Z,42.11
2022-08-23T16:26:21.595Z,42.09
2022-08-23T16:28:54.450Z,42.07
2022-08-23T16:31:38.283Z,42.05
2022-08-23T16:34:00.546Z,42.06
2022-08-23T16:36:33.657Z,42.05
2022-08-23T16:39:06.548Z,42.06
2022-08-23T16:41:43.600Z,42.10
2022-08-23T16:44:16.501Z,42.13
2022-08-23T16:46:49.455Z,42.15
2022-08-23T16:49:22.459Z,42.17
2022-08-23T16:51:55.779Z,42.05
2022-08-23T16:54:28.622Z,41.96
2022-08-23T16:57:01.611Z,42.02
2022-08-23T16:59:39.742Z,42.11
2022-08-23T17:02:10.755Z,42.32
2022-08-23T17:04:40.655Z,42.61
2022-08-23T17:07:13.655Z,42.62
2022-08-23T17:09:46.795Z,42.72
2022-08-23T17:12:19.729Z,42.62
2022-08-23T17:14:52.784Z,42.65
2022-08-23T17:17:25.605Z,42.57
2022-08-23T17:19:58.537Z,42.48
2022-08-23T17:22:31.860Z,42.49
2022-08-23T17:25:04.669Z,42.44
2022-08-23T17:27:37.595Z,42.42
2022-08-23T17:30:10.562Z,42.41
2022-08-23T17:32:43.571Z,42.37
2022-08-23T17:35:16.568Z,42.35
2022-08-23T17:37:49.794Z,42.33
2022-08-23T17:40:22.573Z,42.35
2022-08-23T17:42:55.909Z,42.33
2022-08-23T17:45:28.989Z,42.36
2022-08-23T17:48:01.569Z,42.34
2022-08-23T17:50:34.667Z,42.36
2022-08-23T17:53:07.933Z,42.43
2022-08-23T17:55:40.851Z,42.46
2022-08-23T17:58:13.663Z,42.49
2022-08-23T18:00:46.804Z,42.55
2022-08-23T18:03:19.574Z,42.54
2022-08-23T18:05:52.562Z,42.53
2022-08-23T18:08:25.792Z,42.57
2022-08-23T18:10:58.973Z,42.55
2022-08-23T18:13:31.719Z,42.55
2022-08-23T18:16:04.747Z,42.64
2022-08-23T18:18:37.952Z,42.63
2022-08-23T18:21:13.818Z,42.68
2022-08-23T18:23:46.952Z,42.78
2022-08-23T18:26:19.627Z,42.87
2022-08-23T18:28:52.936Z,42.90
2022-08-23T18:31:25.631Z,42.99
2022-08-23T18:34:00.619Z,42.97
2022-08-23T18:36:31.643Z,42.75
2022-08-23T18:39:04.681Z,42.48
2022-08-23T18:41:37.847Z,42.50
2022-08-23T18:44:10.837Z,42.10
2022-08-23T18:46:43.735Z,41.97
2022-08-23T18:49:16.718Z,41.94
2022-08-23T18:51:49.874Z,41.86
2022-08-23T18:54:22.642Z,41.85
2022-08-23T18:56:55.827Z,42.04
2022-08-23T18:59:28.827Z,42.29
2022-08-23T19:02:02.094Z,41.93
2022-08-23T19:04:34.779Z,41.69
2022-08-23T19:07:07.640Z,41.99
2022-08-23T19:09:40.827Z,41.47
2022-08-23T19:12:13.737Z,41.57
2022-08-23T19:14:47.120Z,41.26
2022-08-23T19:17:20.750Z,41.14
2022-08-23T19:19:53.750Z,41.06
2022-08-23T19:22:26.823Z,41.00
2022-08-23T19:25:01.906Z,41.24
2022-08-23T19:27:34.765Z,40.98
2022-08-23T19:30:07.804Z,40.76
2022-08-23T19:32:41.037Z,40.80
2022-08-23T19:35:14.004Z,40.86
2022-08-23T19:37:47.039Z,40.95
2022-08-23T19:40:20.079Z,40.06
2022-08-23T19:42:53.121Z,40.51
2022-08-23T19:45:26.133Z,39.59
2022-08-23T19:47:59.984Z,40.49
2022-08-23T19:50:33.141Z,40.37
2022-08-23T19:53:05.808Z,40.46
2022-08-23T19:55:38.860Z,39.96
2022-08-23T19:58:12.096Z,39.61
2022-08-23T20:00:44.891Z,39.81
2022-08-23T20:03:17.728Z,39.80
2022-08-23T20:05:50.903Z,39.57
2022-08-23T20:08:23.733Z,39.50
2022-08-23T20:10:57.041Z,39.81
2022-08-23T20:13:29.735Z,39.39
2022-08-23T20:16:02.829Z,39.22
2022-08-23T20:18:35.911Z,39.16
2022-08-23T20:21:08.911Z,39.06
2022-08-23T20:23:42.015Z,39.05
2022-08-23T20:26:14.917Z,39.28
2022-08-23T20:28:59.076Z,38.94
2022-08-23T20:31:20.883Z,39.08
2022-08-23T20:33:54.099Z,39.21
2022-08-23T20:36:26.890Z,39.03
2022-08-23T20:39:00.124Z,39.25
2022-08-23T20:41:35.890Z,39.84
2022-08-23T20:44:09.157Z,39.85
2022-08-23T20:46:42.204Z,39.94
2022-08-23T20:49:15.145Z,40.69
2022-08-23T20:51:48.138Z,41.15
2022-08-23T20:54:21.070Z,41.25
2022-08-23T20:56:54.109Z,41.29
2022-08-23T20:59:26.935Z,40.85
2022-08-23T21:01:59.929Z,41.07
2022-08-23T21:04:32.945Z,40.78
2022-08-23T21:07:05.951Z,40.95
2022-08-23T21:09:38.914Z,40.37
2022-08-23T21:12:12.053Z,40.84
2022-08-23T21:14:44.986Z,40.38
2022-08-23T21:17:17.837Z,40.33
2022-08-23T21:19:50.940Z,40.38
2022-08-23T21:22:23.887Z,39.96
2022-08-23T21:24:56.982Z,40.50
2022-08-23T21:27:30.123Z,39.63
2022-08-23T21:30:03.190Z,39.69
2022-08-23T21:32:36.201Z,39.63
2022-08-23T21:35:09.166Z,39.45
2022-08-23T21:37:45.215Z,39.53
2022-08-23T21:40:18.231Z,39.50
2022-08-23T21:42:51.253Z,39.30
2022-08-23T21:45:24.216Z,39.38
2022-08-23T21:47:57.182Z,39.27
2022-08-23T21:50:30.242Z,39.50
2022-08-23T21:53:03.196Z,39.59
2022-08-23T21:55:37.116Z,38.93
2022-08-23T21:58:09.173Z,39.31
2022-08-23T22:00:42.032Z,39.09
2022-08-23T22:03:15.329Z,38.85
2022-08-23T22:05:48.265Z,38.94
2022-08-23T22:08:21.253Z,39.13
2022-08-23T22:10:58.166Z,38.95
2022-08-23T22:13:27.190Z,38.98
2022-08-23T22:16:00.237Z,39.05
2022-08-23T22:18:33.274Z,39.03
2022-08-23T22:21:06.253Z,38.96
2022-08-23T22:23:39.294Z,38.81
2022-08-23T22:26:12.275Z,38.67
2022-08-23T22:28:45.292Z,38.58
2022-08-23T22:31:18.349Z,38.32
2022-08-23T22:33:51.245Z,38.17
2022-08-23T22:36:25.288Z,38.28
2022-08-23T22:38:58.252Z,38.23
2022-08-23T22:41:30.975Z,38.25
2022-08-23T22:44:04.299Z,38.17
2022-08-23T22:46:37.351Z,37.93
2022-08-23T22:49:10.302Z,38.02
2022-08-23T22:51:43.256Z,37.92
2022-08-23T22:54:16.328Z,38.39
2022-08-23T22:56:49.288Z,38.39
2022-08-23T22:59:22.321Z,38.12
2022-08-23T23:01:55.555Z,38.24
2022-08-23T23:04:28.391Z,38.20
2022-08-23T23:07:01.316Z,38.21
2022-08-23T23:09:34.348Z,38.02
2022-08-23T23:12:08.290Z,38.17
2022-08-23T23:14:41.294Z,38.15
2022-08-23T23:17:14.396Z,37.87
2022-08-23T23:19:47.317Z,37.68
2022-08-23T23:22:20.327Z,37.79
2022-08-23T23:24:53.321Z,37.61
2022-08-23T23:27:26.352Z,37.66
2022-08-23T23:29:59.349Z,37.72
2022-08-23T23:32:32.359Z,37.71
2022-08-23T23:35:05.316Z,37.69
2022-08-23T23:37:38.393Z,37.82
2022-08-23T23:40:11.445Z,37.63
2022-08-23T23:42:44.349Z,37.83
2022-08-23T23:45:17.310Z,37.83
2022-08-23T23:47:50.335Z,37.96
2022-08-23T23:50:23.350Z,38.15
2022-08-23T23:52:56.382Z,37.87
2022-08-23T23:55:29.357Z,37.89
2022-08-23T23:58:02.548Z,37.90
